Chojnice, Poland
Current Conditions -  °F | °C
As of 6:30 PM on Friday 21 Nov 2014 (Local Time) from EPBY Reporting Station
Haze Haze  
Wind Chill: 39°   Ceiling: 700
Heat Index: 39°   Visibility: 3mi
Dew Point: 37°   Wind: 2mph
Humidity: 93%   Direction: 130°SE
Pressure: 30.3"   Gusts: NA
Location:  53.7°N, 17.57°E
Report Text: EPBY 211630Z 13002KT 5000 BR OVC007 04/03 Q1026
Loading
Personal Weather Stations






























Interactive Weather Map New forecast layout! Learn more

10-Day Weather Forecast

Advertisements
Track Severe Weather on mobile